DAAT

Aguenar – Hadj Bey Akhamok Airport

Tamanrasset, Algeria
METAR DAAT 171630Z 27008KT 250V310 7000 TS FEW040CB SCT046 29/15 Q1018
Observed Flight Rules
Aug-17 @ 16:30 UTC (23 minutes ago) Marginal Visual Flight Rules
Wind Visibility Clouds Conditions
270° at 8 knots 7,001 meters
  • Few at 4,000' AGL
  • Scattered at 4,600' AGL
  • Thunderstorm
Temperatures Readings
Current 29°C / 84°F
Dewpoint 15°C / 59°F
Humidity 43%
Altimeter 30.06" Hg
Pressure 1018 hPa
Elevation 1377
METAR DAAT 171630Z 27008KT 250V310 7000 TS FEW040CB SCT046 29/15 Q1018
Observed Flight Rules
Aug-17 @ 16:30 UTC
(23 minutes ago)
MVFR
Wind Visibility
270° at 8 knots 7,001 meters
Clouds
  • Few at 4,000' AGL
  • Scattered at 4,600' AGL
Conditions
  • Thunderstorm
Temperature Dewpoint
29°C / 84°F 15°C / 59°F
Humidity Altimeter Pressure
43% 30.06" Hg 1018 hPa